createdAt,value
2022-09-11T00:06:57.046Z,14.78
2022-09-11T00:21:58.792Z,14.61
2022-09-11T00:37:00.572Z,14.39
2022-09-11T00:52:21.770Z,14.30
2022-09-11T01:07:26.316Z,14.09
2022-09-11T01:22:56.041Z,14.04
2022-09-11T01:38:03.788Z,13.92
2022-09-11T01:53:06.861Z,13.88
2022-09-11T02:08:20.578Z,13.84
2022-09-11T02:23:22.482Z,13.76
2022-09-11T02:38:40.147Z,13.70
2022-09-11T02:54:06.020Z,13.65
2022-09-11T03:09:08.021Z,13.52
2022-09-11T03:24:10.277Z,13.54
2022-09-11T03:39:12.076Z,13.63
2022-09-11T03:54:15.602Z,13.68
2022-09-11T04:09:20.147Z,13.67
2022-09-11T04:24:22.045Z,13.68
2022-09-11T04:39:23.885Z,13.65
2022-09-11T04:54:25.682Z,13.73
2022-09-11T05:09:28.165Z,13.80
2022-09-11T05:24:30.065Z,13.90
2022-09-11T05:39:31.963Z,14.06
2022-09-11T05:54:33.735Z,14.34
2022-09-11T06:09:35.791Z,14.68
2022-09-11T06:24:37.698Z,14.81
2022-09-11T06:39:39.685Z,14.88
2022-09-11T06:54:41.841Z,14.97
2022-09-11T07:09:43.926Z,15.12
2022-09-11T07:24:47.488Z,15.42
2022-09-11T07:39:49.292Z,15.74
2022-09-11T07:54:51.343Z,16.10
2022-09-11T08:10:10.431Z,16.30
2022-09-11T08:25:15.462Z,16.40
2022-09-11T08:40:17.703Z,16.64
2022-09-11T08:55:35.911Z,16.46
2022-09-11T09:10:52.510Z,16.38
2022-09-11T09:25:57.346Z,16.40
2022-09-11T09:56:25.505Z,17.20
2022-09-11T10:11:31.123Z,17.56
2022-09-11T10:26:32.863Z,17.95
2022-09-11T10:41:36.387Z,18.54
2022-09-11T10:56:47.400Z,19.07
2022-09-11T11:12:06.654Z,19.16
2022-09-11T11:27:51.495Z,20.33
2022-09-11T11:43:01.729Z,22.00
2022-09-11T11:58:04.695Z,20.96
2022-09-11T12:13:13.004Z,21.50
2022-09-11T12:28:26.123Z,21.63
2022-09-11T12:44:11.293Z,21.27
2022-09-11T12:59:26.842Z,21.32
2022-09-11T13:14:28.830Z,21.17
2022-09-11T13:29:34.030Z,20.61
2022-09-11T13:44:44.446Z,20.24
2022-09-11T13:59:49.182Z,20.20
2022-09-11T14:14:55.178Z,20.08
2022-09-11T14:29:57.309Z,19.94
2022-09-11T14:44:59.440Z,19.61
2022-09-11T15:00:01.422Z,19.35
2022-09-11T15:15:04.751Z,19.16
2022-09-11T15:30:07.301Z,18.96
2022-09-11T15:45:10.013Z,18.70
2022-09-11T16:00:12.480Z,18.48
2022-09-11T16:15:14.644Z,18.26
2022-09-11T16:30:39.553Z,18.09
2022-09-11T16:45:40.009Z,17.96
2022-09-11T17:00:43.338Z,17.85
2022-09-11T17:15:45.628Z,17.75
2022-09-11T17:30:47.476Z,17.65
2022-09-11T17:45:52.703Z,17.60
2022-09-11T18:00:54.553Z,17.60
2022-09-11T18:15:56.619Z,17.56
2022-09-11T18:31:03.550Z,17.61
2022-09-11T18:46:05.572Z,17.55
2022-09-11T19:01:13.518Z,17.45
2022-09-11T19:16:17.983Z,17.38
2022-09-11T19:31:21.582Z,17.04
2022-09-11T19:46:27.350Z,16.92
2022-09-11T20:01:30.561Z,16.79
2022-09-11T20:16:33.155Z,16.63
2022-09-11T20:31:46.391Z,16.85
2022-09-11T20:46:49.593Z,17.00
2022-09-11T21:01:51.517Z,17.03
2022-09-11T21:16:53.608Z,16.96
2022-09-11T21:31:55.451Z,16.75
2022-09-11T21:46:57.201Z,16.20
2022-09-11T22:01:59.007Z,16.01
2022-09-11T22:17:01.041Z,15.88
2022-09-11T22:32:04.232Z,15.60
2022-09-11T22:47:06.069Z,15.76
2022-09-11T23:02:08.205Z,15.63
2022-09-11T23:17:10.234Z,15.71
2022-09-11T23:32:12.007Z,15.75
2022-09-11T23:47:13.818Z,15.90
